MMMZ

General Rafael Buelna International Airport

Mazatlán, Mexico
TAF MMMZ 181642Z 1818/1924 29010KT P6SM SCT080 BKN240 TX29/1820Z TN15/1914Z FM190100 00000KT P6SM SCT240 FM191900 28010KT P6SM SKC
Issued Valid From Valid To
Dec-18 @ 16:42 UTC
(7 hours ago)
Dec-18 @ 18:00 UTC
(5 hours ago)
Dec-20 @ 00:00 UTC
(-1 days ago)
Dec-18 @ 18:00 to Dec-19 @ 01:00
TAF MMMZ 181642Z 1818/1924 29010KT P6SM SCT080 BKN240 TX29/1820Z TN15/1914Z
Wind Visibility Clouds
290° at 10 knots Greater than 6 miles
  • Scattered at 8,000' AGL
  • Broken at 24,000' AGL
From Dec-19 @ 01:00 to Dec-19 @ 19:00
FM190100 00000KT P6SM SCT240
Visibility Clouds
Greater than 6 miles
  • Scattered at 24,000' AGL
From Dec-19 @ 19:00 to Dec-20 @ 00:00
FM191900 28010KT P6SM SKC
Wind Visibility Clouds
280° at 10 knots Greater than 6 miles
  • Clear skies
TAF MMMZ 181642Z 1818/1924 29010KT P6SM SCT080 BKN240 TX29/1820Z TN15/1914Z FM190100 00000KT P6SM SCT240 FM191900 28010KT P6SM SKC
Issued Dec-18 @ 16:42 UTC
(7 hours ago)
Valid From Dec-18 @ 18:00 UTC
(5 hours ago)
Valid To Dec-20 @ 00:00 UTC
(-1 days ago)
Dec-18 @ 18:00 - Dec-19 @ 01:00
Wind Visibility
290° at 10 knots Greater than 6 miles
Clouds
  • Scattered at 8,000' AGL
  • Broken at 24,000' AGL
From Dec-19 @ 01:00 - Dec-19 @ 19:00
Clouds
  • Scattered at 24,000' AGL
From Dec-19 @ 19:00 - Dec-20 @ 00:00
Wind Visibility
280° at 10 knots Greater than 6 miles
Clouds
  • Clear skies